Station: ROSEWORTHY AWS

  Atmospheric Gas Attenuation - ITU Rec 676-11   --------------- db/100km ---------------
Date Time Temp RH % AH g/m3 Dew Point Wind Direction Speed kph Gust kph Barometer mB Rainfall Since 9am 24GHz 47GHz 76GHz 122GHz 134GHz 241GHz
24 20:30 32.5 26 9.02 10.5 11 15 1001.2 0 19.6 21.3 32.5 85.5 81.4 281.3
24 20:20 32.7 26 9.11 10.7 13 15 1001.1 0 19.8 21.4 32.7 86.0 82.2 283.9
24 20:10 32.8 27 9.51 11.3 11 15 1001 0 20.6 21.8 34.0 89.3 86.2 298.1
24 20:00 33.2 27 9.72 11.7 15 20 1000.8 0 21.0 22.0 34.5 90.6 88.0 304.3
24 19:50 34.3 24 9.15 10.8 17 20 1000.7 0 19.8 21.0 32.2 84.7 81.0 279.8
24 19:40 35.1 22 8.75 10.2 17 20 1000.6 0 18.9 20.4 30.7 80.7 76.2 263.1
24 19:30 36 20 8.33 9.5 17 24 1000.7 0 18.0 19.7 29.2 76.5 71.3 246.0
24 19:20 36.9 19 8.29 9.5 15 19 1000.4 0 17.9 19.4 28.7 75.4 70.1 242.0
24 19:10 36.4 19 8.08 9.1 17 20 1000.3 0 17.5 19.3 28.3 74.2 68.5 236.4
24 19:00 36.3 19 8.04 9 28 37 1000.2 0 17.4 19.2 28.2 73.9 68.2 235.3
24 18:50 36.7 20 8.64 10.1 30 39 1000.1 0 18.6 19.9 29.8 78.2 73.6 254.3
24 18:40 37.5 19 8.55 10 33 41 999.9 0 18.4 19.6 29.3 76.8 72.1 248.9
24 18:30 38.6 17 8.09 9.2 28 44 1000 0 17.4 18.8 27.6 72.3 66.8 230.6
24 18:20 40.8 10 5.32 3.2 24 26 999.7 0 11.8 15.4 19.7 51.2 41.3 140.8
24 18:10 41.1 10 5.4 3.4 32 39 999.6 0 11.9 15.5 19.8 51.5 41.8 142.6
24 18:00 41.7 10 5.56 3.9 24 33 999.7 0 12.2 15.6 20.0 52.2 42.8 146.2
24 17:50 41.7 10 5.56 3.9 33 41 999.7 0 12.2 15.6 20.0 52.2 42.8 146.2
24 17:40 42.3 10 5.73 4.3 26 30 999.7 0 12.6 15.6 20.3 53.0 43.9 150.1
24 17:30 42.1 10 5.67 4.2 28 43 999.8 0 12.4 15.6 20.2 52.7 43.5 148.8
24 17:20 42.7 10 5.84 4.6 30 33 999.7 0 12.8 15.7 20.5 53.5 44.6 152.6
24 17:10 42.5 10 5.78 4.5 24 28 999.8 0 12.7 15.7 20.4 53.2 44.2 151.3
24 17:00 43 10 5.93 4.9 26 39 1000.1 0 12.9 15.7 20.7 53.9 45.2 154.8
24 16:50 43.3 9 5.41 3.6 24 28 1000.1 0 11.9 15.2 19.3 50.4 40.8 139.4
24 16:40 43.4 10 6.05 5.2 26 30 1000.2 0 13.2 15.8 20.9 54.5 46.0 157.5
24 16:30 43.6 10 6.11 5.3 26 39 1000.5 0 13.3 15.8 21.0 54.8 46.4 158.9
24 16:20 43.2 10 5.99 5 28 33 1000.5 0 13.1 15.8 20.8 54.2 45.6 156.2
24 16:10 43.4 10 6.05 5.2 32 39 1000.5 0 13.2 15.8 20.9 54.5 46.0 157.6
24 16:00 43.4 10 6.05 5.2 32 54 1000.7 0 13.2 15.8 20.9 54.5 46.0 157.6
24 15:50 43.6 10 6.11 5.3 26 43 1000.9 0 13.3 15.8 21.0 54.8 46.4 159.0
24 15:40 42.7 10 5.84 4.6 32 43 1001 0 12.8 15.7 20.5 53.6 44.6 152.8
24 15:30 42.4 10 5.76 4.4 26 39 1001.2 0 12.6 15.7 20.4 53.2 44.1 151.0
24 15:20 42.8 10 5.87 4.7 24 28 1001.3 0 12.8 15.7 20.6 53.7 44.8 153.5
24 15:10 43.5 10 6.08 5.2 39 44 1001.4 0 13.2 15.8 21.0 54.7 46.2 158.4
24 15:00 43.1 10 5.96 4.9 28 44 1001.5 0 13.0 15.8 20.8 54.2 45.4 155.6
24 14:50 42.7 10 5.84 4.6 37 46 1001.7 0 12.8 15.7 20.6 53.6 44.7 152.9
24 14:40 43.5 10 6.08 5.2 33 39 1001.7 0 13.2 15.9 21.0 54.7 46.2 158.4
24 14:30 43.1 10 5.96 4.9 30 44 1001.9 0 13.0 15.8 20.8 54.2 45.5 155.7
24 14:20 43.5 10 6.08 5.2 20 26 1001.9 0 13.2 15.9 21.0 54.7 46.2 158.4
24 14:10 43.3 9 5.41 3.6 32 33 1002.2 0 11.9 15.2 19.4 50.5 40.9 139.7
24 14:00 43.2 9 5.39 3.5 22 41 1002.2 0 11.8 15.2 19.4 50.4 40.8 139.3
24 13:50 43.9 9 5.58 4 19 24 1002.4 0 12.2 15.3 19.7 51.2 42.0 143.6
24 13:40 43.5 9 5.47 3.7 19 22 1002.6 0 12.0 15.3 19.5 50.8 41.3 141.1
24 13:30 43.2 9 5.39 3.5 24 37 1002.8 0 11.8 15.2 19.4 50.4 40.8 139.4
24 13:20 43.6 9 5.49 3.8 24 30 1002.9 0 12.0 15.3 19.5 50.9 41.4 141.6
24 13:10 42.8 9 5.28 3.2 26 32 1002.8 0 11.6 15.2 19.2 49.9 40.1 136.9
24 13:00 43.3 9 5.41 3.6 28 41 1003 0 11.9 15.2 19.4 50.5 40.9 139.8
24 12:50 42.8 9 5.28 3.2 24 30 1003.1 0 11.6 15.2 19.2 50.0 40.1 136.9
24 12:40 41.9 9 5.05 2.6 19 26 1003.3 0 11.2 15.1 18.8 49.0 38.7 131.8
24 12:30 42.4 9 5.18 2.9 28 41 1003.3 0 11.5 15.2 19.1 49.6 39.5 134.7
24 12:20 42.5 9 5.21 3 37 41 1003.4 0 11.5 15.2 19.1 49.7 39.7 135.4
24 12:10 43.9 9 5.58 4 28 37 1003.5 0 12.2 15.3 19.7 51.3 42.0 143.7
24 12:00 43.9 9 5.58 4 33 46 1003.6 0 12.2 15.3 19.7 51.3 42.0 143.7
24 11:50 43.3 9 5.41 3.6 30 37 1003.7 0 11.9 15.3 19.4 50.6 41.0 139.9
24 11:40 42.7 10 5.84 4.6 28 35 1003.8 0 12.8 15.8 20.6 53.7 44.8 153.2
24 11:30 42.1 10 5.67 4.2 33 46 1003.9 0 12.4 15.7 20.3 53.0 43.7 149.3
24 11:20 42.8 10 5.87 4.7 32 37 1004 0 12.8 15.8 20.7 53.9 45.0 153.9
24 11:10 42.3 10 5.73 4.3 35 43 1004.1 0 12.6 15.7 20.4 53.3 44.1 150.7
24 11:00 41.7 9 5 2.4 26 35 1004.1 0 11.1 15.1 18.8 48.8 38.4 130.8
24 10:50 40.9 9 4.81 1.8 26 35 1004.3 0 10.8 15.0 18.5 48.0 37.2 126.5
24 10:40 40 9 4.6 1.1 30 32 1004.4 0 10.4 15.0 18.2 47.1 35.9 121.8
24 10:30 39.7 9 4.53 0.9 26 37 1004.5 0 10.2 14.9 18.1 46.8 35.5 120.2
24 10:20 39.6 9 4.51 0.9 30 33 1004.5 0 10.2 14.9 18.0 46.8 35.4 119.8
24 10:10 39.7 9 4.53 0.9 32 39 1004.6 0 10.2 14.9 18.1 46.8 35.5 120.2
24 10:00 39 9 4.37 0.4 30 39 1004.7 0 9.9 14.9 17.8 46.2 34.5 116.6
24 09:50 38.3 9 4.22 -0.1 30 33 1004.9 0 9.6 14.8 17.6 45.5 33.5 113.2
24 09:40 37.4 9 4.03 -0.8 30 33 1005 0 9.3 14.8 17.3 44.8 32.3 108.9
24 09:30 36.9 10 4.36 0.3 33 43 1005 0 10.0 15.2 18.2 47.2 35.2 119.1
24 09:20 36.6 10 4.3 0.1 37 44 1005.1 0 9.8 15.2 18.1 47.0 34.9 117.8
24 09:10 36.4 10 4.25 -0.1 35 41 1005 0 9.7 15.2 18.1 46.7 34.5 116.5
24 09:00 36.3 10 4.23 -0.2 35 48 1005.1 0 9.7 15.2 18.0 46.7 34.4 116.1
24 08:50 35.8 11 4.54 0.8 26 32 1005.2 0 10.3 15.6 18.9 49.1 37.2 126.0
24 08:40 35 11 4.35 0.2 28 33 1005.2 0 10.0 15.5 18.6 48.2 35.9 121.4
24 08:30 33.2 13 4.68 1.1 30 37 1005.2 0 10.7 16.1 19.9 51.5 39.6 134.1
24 08:20 32.7 13 4.56 0.7 30 37 1005.2 0 10.5 16.1 19.7 51.0 38.8 131.2
24 08:10 32.4 14 4.83 1.5 30 35 1005.2 0 11.0 16.4 20.5 53.1 41.3 140.1
24 08:00 32.1 14 4.75 1.3 30 39 1005.1 0 10.9 16.4 20.3 52.7 40.7 138.0
24 07:50 31.6 16 5.29 2.7 33 39 1005 0 12.0 17.1 21.9 57.0 45.9 156.1
24 07:40 31.5 16 5.26 2.7 32 37 1005 0 11.9 17.1 21.8 56.8 45.6 155.3
24 07:30 30.7 18 5.67 3.7 32 39 1004.8 0 12.8 17.7 23.2 60.4 49.9 170.3
24 07:20 29.8 19 5.7 3.7 32 35 1004.8 0 12.9 17.9 23.5 61.3 50.7 173.1
24 07:10 29.9 19 5.73 3.8 35 41 1004.8 0 12.9 17.9 23.6 61.5 51.0 173.9
24 07:00 29.8 19 5.7 3.7 33 43 1004.7 0 12.9 17.9 23.5 61.3 50.7 173.1
24 06:50 29.4 19 5.58 3.4 33 43 1004.7 0 12.7 17.8 23.3 60.7 49.8 169.8
24 06:40 29.1 19 5.49 3.1 32 39 1004.7 0 12.5 17.7 23.1 60.2 49.1 167.4
24 06:30 28.9 19 5.43 3 30 39 1004.7 0 12.4 17.7 23.0 59.9 48.7 165.8
24 06:20 28.7 19 5.37 2.8 30 35 1004.7 0 12.2 17.7 22.9 59.5 48.2 164.1
24 06:10 28.8 19 5.4 2.9 30 35 1004.6 0 12.3 17.7 22.9 59.7 48.4 164.9
24 06:00 28.9 19 5.43 3 30 37 1004.6 0 12.4 17.7 23.0 59.8 48.7 165.8
24 05:50 28.8 20 5.68 3.6 28 35 1004.6 0 12.9 18.0 23.7 61.9 51.1 174.4
24 05:40 28.8 20 5.68 3.6 30 33 1004.5 0 12.9 18.0 23.7 61.9 51.1 174.4
24 05:30 28.7 20 5.65 3.5 28 35 1004.5 0 12.8 18.0 23.7 61.7 50.9 173.6
24 05:20 28.9 19 5.43 3 30 33 1004.5 0 12.4 17.7 23.0 59.8 48.7 165.7
24 04:50 28.6 20 5.62 3.5 22 26 1004.5 0 12.8 18.0 23.6 61.5 50.7 172.8
24 04:40 28.1 22 6.02 4.4 22 28 1004.5 0 13.6 18.6 24.9 65.1 54.9 187.6
24 04:30 27.9 23 6.22 4.9 24 32 1004.5 0 14.0 18.8 25.6 66.8 57.0 195.0
24 04:20 28.2 23 6.32 5.1 26 32 1004.5 0 14.2 18.9 25.8 67.4 57.8 197.8
24 04:10 28.6 23 6.46 5.5 28 32 1004.5 0 14.5 19.0 26.1 68.2 58.9 201.8
24 04:00 28.4 23 6.39 5.3 20 28 1004.6 0 14.4 19.0 26.0 67.8 58.4 199.8
24 03:50 28.1 24 6.56 5.6 20 22 1004.6 0 14.7 19.2 26.6 69.4 60.3 206.5
24 03:40 28.4 24 6.67 5.9 24 30 1004.6 0 14.9 19.3 26.8 70.1 61.2 209.7

Last Refresh: 24-Jan-2021 20:43:33

Most of the information presented on this site is sourced from the Bureau of Meteorology.  Copyright in all material sourced from the Bureau of Meteorology resides with the Commonwealth of Australia.